Woolrich, Pennsylvania
Current Conditions -  °F | °C
As of 4:54 PM on Monday 20 Oct 2014 (Local Time) from KIPT Reporting Station
Overcast Overcast  
Wind Chill: 59°   Ceiling: 10000
Heat Index: 59°   Visibility: 10mi
Dew Point: 33°   Wind: 3mph
Humidity: 38%   Direction: NA
Pressure: 29.9"   Gusts: NA
Location:  41.19°N, 77.38°W
Report Text: KIPT 202054Z VRB03KT 10SM SCT065 OVC100 15/01 A2990 RMK AO2 SLP125 T01500006 56017
Loading
Personal Weather Stations






























Interactive Weather Map
Tropical Storm Tracking
New forecast layout! Learn more

10-Day Weather Forecast

Advertisements
Track Severe Weather on mobile